Time;durP1;ratioP1;P1;durP2;ratioP2;P2;SDS_P1;SDS_P2;PMS_P1;PMS_P2;Temp;Humidity;BMP_temperature;BMP_pressure;BME280_temperature;BME280_humidity;BME280_pressure;Samples;Min_cycle;Max_cycle;Signal;HPM_P1;HPM_P2
2023/01/04 00:02:09;;;;;;;9.67;5.67;;;4.80;99.90;;;4.67;65.23;101407.09;5109683;28;20258;-65
2023/01/04 00:04:38;;;;;;;11.77;5.63;;;4.70;99.90;;;4.66;65.75;101416.44;5105506;28;20634;-67
2023/01/04 00:07:06;;;;;;;9.73;5.93;;;4.70;99.90;;;4.63;65.06;101406.09;5108553;28;20305;-67
2023/01/04 00:09:35;;;;;;;11.67;5.80;;;4.70;99.90;;;4.62;65.69;101409.50;5109234;28;20252;-66
2023/01/04 00:12:03;;;;;;;10.23;5.23;;;4.70;99.90;;;4.60;65.41;101409.44;5109405;28;20533;-67
2023/01/04 00:14:32;;;;;;;11.37;6.43;;;4.70;99.90;;;4.58;65.67;101407.66;5107037;28;20254;-65
2023/01/04 00:17:02;;;;;;;11.10;6.00;;;4.60;99.90;;;4.55;65.09;101412.63;5104694;28;20219;-63
2023/01/04 00:19:30;;;;;;;11.57;5.97;;;4.60;99.90;;;4.50;65.38;101406.53;5108667;28;20285;-65
2023/01/04 00:21:58;;;;;;;13.97;6.77;;;4.50;99.90;;;4.48;65.51;101408.13;5109016;28;20207;-64
2023/01/04 00:24:27;;;;;;;13.90;6.43;;;4.50;99.90;;;4.43;66.48;101402.88;5108577;28;20551;-65
2023/01/04 00:26:55;;;;;;;12.83;6.07;;;4.50;99.90;;;4.38;66.35;101408.63;5091218;28;20251;-66
2023/01/04 00:29:24;;;;;;;8.50;5.47;;;4.50;99.90;;;4.34;66.61;101402.53;5109148;28;20648;-64
2023/01/04 00:31:52;;;;;;;10.93;6.33;;;4.40;99.90;;;4.32;66.50;101409.28;5103774;28;20204;-63
2023/01/04 00:34:22;;;;;;;12.67;6.30;;;4.40;99.90;;;4.30;66.47;101416.00;5106622;28;20200;-64
2023/01/04 00:36:51;;;;;;;10.33;6.30;;;4.40;99.90;;;4.26;66.27;101412.47;5109018;28;20232;-64
2023/01/04 00:39:20;;;;;;;11.50;6.03;;;4.30;99.90;;;4.25;66.46;101420.09;5090599;28;20237;-66
2023/01/04 00:41:50;;;;;;;13.57;6.57;;;4.30;99.90;;;4.24;66.34;101426.88;5109206;28;20284;-64
2023/01/04 00:44:29;;;;;;;12.70;7.03;;;4.30;99.90;;;4.20;67.19;101417.38;5107168;28;20207;-64
2023/01/04 00:46:58;;;;;;;12.93;7.50;;;4.40;99.90;;;4.16;66.56;101423.19;5109280;28;20621;-63
2023/01/04 00:49:29;;;;;;;14.37;6.57;;;4.20;99.90;;;4.08;67.39;101417.78;5107659;28;20296;-65
2023/01/04 00:51:58;;;;;;;12.67;6.83;;;4.20;99.90;;;4.02;67.11;101425.22;5107805;28;20645;-64
2023/01/04 00:54:26;;;;;;;14.73;7.40;;;4.10;99.90;;;3.97;67.37;101430.94;5109307;28;20242;-66
2023/01/04 00:56:55;;;;;;;12.53;6.80;;;4.00;99.90;;;3.88;68.14;101440.00;5108346;28;20521;-64
2023/01/04 00:59:23;;;;;;;10.77;7.10;;;4.00;99.90;;;3.83;67.34;101441.50;5105951;28;20714;-65
2023/01/04 01:01:52;;;;;;;11.77;7.07;;;3.90;99.90;;;3.78;68.13;101448.09;5103215;28;20208;-67
2023/01/04 01:04:24;;;;;;;14.07;7.43;;;3.90;99.90;;;3.74;68.46;101448.78;5106032;28;20199;-66
2023/01/04 01:06:54;;;;;;;12.13;7.40;;;3.90;99.90;;;3.73;68.18;101456.38;5108785;28;20222;-67
2023/01/04 01:09:22;;;;;;;12.63;7.53;;;3.80;99.90;;;3.72;68.29;101459.72;5107525;28;20265;-64
2023/01/04 01:11:53;;;;;;;10.77;6.83;;;3.80;99.90;;;3.68;68.70;101453.63;5108888;28;20235;-65
2023/01/04 01:14:24;;;;;;;17.63;8.33;;;3.80;99.90;;;3.64;68.94;101451.78;5108818;28;20211;-64
2023/01/04 01:16:54;;;;;;;15.60;8.20;;;3.70;99.90;;;3.62;68.64;101449.19;5104290;28;20212;-64
2023/01/04 01:19:27;;;;;;;16.93;7.77;;;3.70;99.90;;;3.55;69.39;101447.19;5107294;28;20255;-66
2023/01/04 01:21:58;;;;;;;14.50;7.97;;;3.70;99.90;;;3.47;69.29;101450.25;5107760;28;20199;-65
2023/01/04 01:24:27;;;;;;;16.00;8.47;;;3.60;99.90;;;3.42;69.13;101455.16;5108742;28;20676;-66
2023/01/04 01:26:56;;;;;;;16.47;8.73;;;3.50;99.90;;;3.39;69.00;101462.69;5108445;28;20269;-64
2023/01/04 01:29:25;;;;;;;11.93;8.00;;;3.40;99.90;;;3.33;70.05;101458.22;5108339;28;20637;-66
2023/01/04 01:31:53;;;;;;;14.03;8.33;;;3.40;99.90;;;3.31;69.83;101457.28;5107668;28;20206;-65
2023/01/04 01:34:22;;;;;;;15.47;8.93;;;3.40;99.90;;;3.31;70.06;101457.28;5105539;28;20253;-65
2023/01/04 01:36:50;;;;;;;12.20;8.07;;;3.40;99.90;;;3.33;70.12;101465.00;5109259;28;20631;-65
2023/01/04 01:39:20;;;;;;;15.43;9.73;;;3.40;99.90;;;3.34;70.56;101459.94;5107090;28;20224;-66
2023/01/04 01:41:49;;;;;;;15.30;9.50;;;3.40;99.90;;;3.30;70.50;101453.00;5107474;28;20208;-65
2023/01/04 01:45:01;;;;;;;14.23;8.57;;;3.40;99.90;;;3.28;71.00;101446.13;5106792;28;20219;-64
2023/01/04 01:47:39;;;;;;;16.43;8.93;;;3.40;99.90;;;3.25;70.22;101434.13;5109204;28;20203;-63
2023/01/04 01:50:22;;;;;;;16.10;8.83;;;3.30;99.90;;;3.24;70.17;101432.38;5107298;28;20191;-65
2023/01/04 01:52:52;;;;;;;14.00;8.37;;;3.30;99.90;;;3.22;71.03;101425.47;5107385;28;20204;-63
2023/01/04 01:55:22;;;;;;;17.10;7.83;;;3.30;99.90;;;3.20;69.98;101430.50;5105494;28;20672;-63
2023/01/04 01:57:53;;;;;;;12.90;7.73;;;3.20;99.90;;;3.19;71.15;101425.34;5112873;28;20196;-64
2023/01/04 02:00:21;;;;;;;16.37;7.53;;;3.20;99.90;;;3.16;70.78;101428.63;5111914;28;20256;-65
2023/01/04 02:03:02;;;;;;;12.30;8.07;;;3.20;99.90;;;3.18;71.00;101427.03;5110708;28;20639;-64
2023/01/04 02:05:32;;;;;;;16.00;8.60;;;3.30;99.90;;;3.18;70.83;101434.66;5112075;28;20223;-65
2023/01/04 02:08:03;;;;;;;15.73;7.47;;;3.30;99.90;;;3.15;70.93;101432.00;5111031;28;20219;-66
2023/01/04 02:10:33;;;;;;;16.33;8.87;;;3.20;99.90;;;3.13;70.61;101433.63;5110899;28;20200;-65
2023/01/04 02:13:08;;;;;;;16.00;8.50;;;3.20;99.90;;;3.06;71.49;101434.19;5110638;28;20211;-65
2023/01/04 02:15:55;;;;;;;14.23;8.10;;;3.10;99.90;;;3.03;70.96;101427.28;5111830;28;20248;-64
2023/01/04 02:18:30;;;;;;;14.03;8.53;;;3.20;99.90;;;2.96;71.68;101429.50;5111222;28;20203;-65
2023/01/04 02:21:06;;;;;;;15.10;9.10;;;3.00;99.90;;;2.89;70.98;101424.16;5108392;28;20203;-64
2023/01/04 02:24:18;;;;;;;16.67;8.97;;;3.00;99.90;;;2.84;71.95;101430.75;5109528;28;20623;-64
2023/01/04 02:27:26;;;;;;;12.27;8.50;;;2.90;99.90;;;2.78;72.31;101425.38;5071229;28;20245;-65
2023/01/04 02:30:52;;;;;;;13.73;8.03;;;2.90;99.90;;;2.74;72.41;101418.44;5109917;28;20272;-66
2023/01/04 02:33:38;;;;;;;14.63;8.83;;;2.90;99.90;;;2.70;72.42;101418.25;5008026;28;20660;-64
2023/01/04 02:36:16;;;;;;;13.23;8.40;;;2.80;99.90;;;2.66;73.15;101404.50;5101278;28;20237;-64
2023/01/04 02:39:03;;;;;;;14.87;8.83;;;2.70;99.90;;;2.62;73.03;101417.91;5112026;28;20215;-64
2023/01/04 02:41:37;;;;;;;15.07;8.87;;;2.70;99.90;;;2.55;73.45;101408.28;5108054;28;20188;-65
2023/01/04 02:47:06;;;;;;;14.43;9.17;;;2.60;99.90;;;2.48;73.72;101413.91;5104227;28;20199;-66
2023/01/04 02:52:29;;;;;;;13.83;9.17;;;2.60;99.90;;;2.42;73.46;101400.09;5108756;28;20229;-65
2023/01/04 02:54:58;;;;;;;15.40;9.47;;;2.50;99.90;;;2.39;73.68;101407.63;5107515;28;20612;-65
2023/01/04 02:57:41;;;;;;;18.30;10.07;;;2.50;99.90;;;2.37;74.45;101403.25;5110781;28;20211;-66
2023/01/04 03:06:14;;;;;;;17.13;8.90;;;2.50;99.90;;;2.37;74.73;101409.22;5109358;28;20239;-67
2023/01/04 03:06:28;;;;;;;15.20;8.87;;;2.40;99.90;;;2.33;74.07;101407.34;5111415;28;20242;-64
2023/01/04 03:09:02;;;;;;;13.10;8.67;;;2.40;99.90;;;2.30;74.07;101401.25;5111319;28;20702;-65
2023/01/04 03:14:30;;;;;;;15.67;9.43;;;2.30;99.90;;;2.23;74.69;101402.66;5098998;28;20249;-67
2023/01/04 03:17:04;;;;;;;16.33;9.33;;;2.30;99.90;;;2.21;74.83;101388.13;5109312;28;20206;-65
2023/01/04 03:36:46;;;;;;;15.70;9.37;;;2.10;99.90;;;2.09;75.19;101355.41;5110309;28;20609;-66
2023/01/04 03:48:30;;;;;;;13.60;9.10;;;2.10;99.90;;;2.07;74.71;101372.28;5108816;28;20883;-64
2023/01/04 03:51:13;;;;;;;19.03;9.53;;;2.10;99.90;;;2.07;74.76;101369.75;5107174;28;20204;-63
2023/01/04 03:53:52;;;;;;;16.03;9.50;;;2.10;99.90;;;2.04;75.61;101360.31;5096395;28;20199;-65
2023/01/04 03:56:24;;;;;;;16.03;9.00;;;2.10;99.90;;;2.04;75.19;101346.72;5109361;28;20238;-65
2023/01/04 03:58:54;;;;;;;14.60;9.30;;;2.10;99.90;;;2.03;74.60;101347.53;5109582;28;20196;-65
2023/01/04 04:01:25;;;;;;;14.70;9.43;;;2.10;99.90;;;2.04;75.39;101351.81;5107626;28;20277;-65
2023/01/04 04:09:26;;;;;;;17.50;9.77;;;2.10;99.90;;;2.05;75.71;101358.63;5109687;28;20638;-66
2023/01/04 04:11:56;;;;;;;16.07;10.67;;;2.10;99.90;;;2.04;74.79;101355.22;5108867;28;20204;-64
2023/01/04 04:14:25;;;;;;;15.77;9.07;;;2.10;99.90;;;2.03;75.19;101350.06;5109161;28;20597;-65
2023/01/04 04:16:53;;;;;;;15.07;9.13;;;2.00;99.90;;;1.99;75.06;101344.00;5106367;27;20203;-64
2023/01/04 04:19:22;;;;;;;13.20;8.90;;;2.10;99.90;;;2.01;75.33;101342.38;5108107;28;20597;-63
2023/01/04 04:21:50;;;;;;;17.13;10.13;;;2.00;99.90;;;2.02;74.85;101348.31;5110840;28;20671;-64
2023/01/04 04:24:22;;;;;;;14.77;10.43;;;2.10;99.90;;;2.00;74.65;101344.84;5107637;28;20203;-66
2023/01/04 04:26:50;;;;;;;18.63;10.63;;;2.10;99.90;;;2.01;75.41;101347.44;5109771;28;20196;-64
2023/01/04 04:29:20;;;;;;;16.50;9.40;;;2.10;99.90;;;2.02;75.00;101350.84;5106583;28;20775;-64
2023/01/04 04:31:49;;;;;;;18.10;10.57;;;2.00;99.90;;;2.02;75.32;101345.78;5097036;28;20243;-65
2023/01/04 04:34:17;;;;;;;13.70;9.40;;;2.10;99.90;;;2.00;75.03;101343.19;5108735;28;20586;-64
2023/01/04 04:36:45;;;;;;;16.23;9.67;;;2.10;99.90;;;2.03;74.50;101333.16;5108758;28;20211;-63
2023/01/04 04:39:14;;;;;;;17.37;9.90;;;2.00;99.90;;;2.03;74.74;101330.59;5105075;28;20231;-65
2023/01/04 04:41:42;;;;;;;15.87;10.77;;;2.00;99.90;;;2.03;75.17;101329.75;5109078;28;20200;-64
2023/01/04 04:44:12;;;;;;;18.57;11.03;;;2.10;99.90;;;2.06;75.02;101340.00;5108660;28;20261;-64
2023/01/04 04:46:43;;;;;;;20.13;12.03;;;2.10;99.90;;;2.04;75.01;101337.41;5108670;28;20199;-64
2023/01/04 04:49:13;;;;;;;19.20;12.87;;;2.10;99.90;;;2.05;74.75;101330.66;5108589;28;20215;-65
2023/01/04 04:51:43;;;;;;;23.43;13.40;;;2.10;99.90;;;2.05;74.15;101339.16;5108332;28;20249;-66
2023/01/04 04:54:17;;;;;;;20.63;13.93;;;2.10;99.90;;;2.04;74.43;101332.34;5109271;28;20208;-65
2023/01/04 04:56:46;;;;;;;20.87;15.07;;;2.10;99.90;;;2.05;75.54;101333.19;5107807;28;20196;-64
2023/01/04 04:59:15;;;;;;;25.13;15.40;;;2.10;99.90;;;2.07;75.02;101327.41;5106214;28;20277;-65
2023/01/04 05:01:45;;;;;;;22.50;13.97;;;2.10;99.90;;;2.10;74.52;101336.81;5108177;28;20207;-65
2023/01/04 05:04:15;;;;;;;22.67;14.23;;;2.10;99.90;;;2.08;74.95;101333.34;5108759;28;20648;-65
2023/01/04 05:06:44;;;;;;;21.30;12.97;;;2.10;99.90;;;2.08;74.44;101325.72;5109015;28;20256;-63
2023/01/04 05:09:14;;;;;;;20.07;13.27;;;2.10;99.90;;;2.08;74.79;101334.22;5108167;28;20223;-65
2023/01/04 05:14:29;;;;;;;19.93;12.73;;;2.10;99.90;;;2.07;74.77;101331.63;5106414;28;20207;-63
2023/01/04 05:16:59;;;;;;;19.33;12.43;;;2.10;99.90;;;2.07;74.52;101342.66;5109250;28;20263;-65
2023/01/04 05:19:27;;;;;;;20.97;11.27;;;2.10;99.90;;;2.08;74.17;101346.91;5108625;28;20224;-66
2023/01/04 05:21:55;;;;;;;18.83;10.37;;;2.10;99.90;;;2.09;74.22;101335.94;5108529;28;20611;-65
2023/01/04 05:24:24;;;;;;;19.47;11.20;;;2.10;99.90;;;2.08;74.55;101329.13;5108679;28;20208;-64
2023/01/04 05:26:52;;;;;;;23.40;12.50;;;2.10;99.90;;;2.07;74.19;101318.91;5112775;28;20234;-65
2023/01/04 05:32:08;;;;;;;17.77;11.13;;;2.10;99.90;;;2.05;74.12;101302.69;5108000;28;20231;-64
2023/01/04 05:34:38;;;;;;;17.20;11.03;;;2.10;99.90;;;2.03;74.74;101302.66;5112206;28;20272;-67
2023/01/04 05:37:06;;;;;;;18.40;11.23;;;2.10;99.90;;;2.03;74.26;101306.88;5110513;28;20207;-65
2023/01/04 05:39:35;;;;;;;17.03;11.40;;;2.00;99.90;;;2.02;74.88;101297.47;5107619;28;20208;-66
2023/01/04 05:44:49;;;;;;;20.67;11.73;;;2.10;99.90;;;2.06;74.81;101299.34;5109204;28;20336;-65
2023/01/04 05:47:19;;;;;;;19.00;12.57;;;2.10;99.90;;;2.06;74.59;101285.00;5109580;28;20269;-66
2023/01/04 05:49:47;;;;;;;21.60;11.20;;;2.10;99.90;;;2.08;74.93;101282.50;5111324;28;20228;-65
2023/01/04 05:52:16;;;;;;;18.93;11.93;;;2.10;99.90;;;2.11;75.12;101282.63;5109425;28;20231;-63
2023/01/04 05:54:45;;;;;;;20.30;12.57;;;2.20;99.90;;;2.14;74.01;101283.63;5109817;28;20295;-65
2023/01/04 05:57:14;;;;;;;23.47;13.47;;;2.10;99.90;;;2.13;73.84;101281.00;5112366;28;20203;-63
2023/01/04 05:59:42;;;;;;;19.00;11.77;;;2.20;99.90;;;2.16;74.48;101278.59;5110089;28;20224;-65
2023/01/04 06:02:16;;;;;;;21.07;12.20;;;2.10;99.90;;;2.16;73.80;101270.97;5110549;28;20260;-65
2023/01/04 06:04:46;;;;;;;24.07;12.33;;;2.20;99.90;;;2.18;73.84;101277.00;5110928;28;20211;-64
2023/01/04 06:07:22;;;;;;;18.73;12.13;;;2.10;99.90;;;2.14;74.09;101277.69;5106433;28;20203;-65
2023/01/04 06:09:50;;;;;;;17.07;11.23;;;2.10;99.90;;;2.13;74.10;101279.31;5105075;28;20665;-64
2023/01/04 06:12:19;;;;;;;19.27;11.77;;;2.10;99.90;;;2.12;73.82;101274.19;5112368;28;20204;-66
2023/01/04 06:14:48;;;;;;;20.03;12.27;;;2.10;99.90;;;2.13;74.44;101275.91;5110794;28;20196;-64
2023/01/04 06:17:16;;;;;;;20.90;11.50;;;2.10;99.90;;;2.12;73.67;101271.66;5103831;27;20218;-63
2023/01/04 06:19:46;;;;;;;18.00;11.67;;;2.10;99.90;;;2.12;73.77;101264.88;5107161;28;20235;-65
2023/01/04 06:22:14;;;;;;;22.23;12.90;;;2.10;99.90;;;2.09;73.76;101259.66;5098894;28;20212;-63
2023/01/04 06:24:43;;;;;;;19.03;12.73;;;2.10;99.90;;;2.08;74.39;101257.94;5110805;28;20660;-65
2023/01/04 06:27:11;;;;;;;20.50;12.53;;;2.10;99.90;;;2.07;73.87;101246.03;5110175;28;20256;-65
2023/01/04 06:29:40;;;;;;;21.73;12.90;;;2.10;99.90;;;2.09;74.60;101243.56;5104212;28;20265;-63
2023/01/04 06:32:08;;;;;;;25.07;13.13;;;2.10;99.90;;;2.12;74.05;101233.53;5102345;28;20203;-66
2023/01/04 06:34:37;;;;;;;18.03;11.90;;;2.20;99.90;;;2.14;74.15;101234.47;5111109;28;20229;-62
2023/01/04 06:37:06;;;;;;;18.40;11.47;;;2.20;99.90;;;2.16;74.21;101232.84;5108039;28;20212;-64
2023/01/04 06:39:35;;;;;;;20.40;11.83;;;2.20;99.90;;;2.15;74.25;101244.69;5107252;28;20196;-65
2023/01/04 06:42:04;;;;;;;20.30;12.37;;;2.20;99.90;;;2.16;73.39;101240.47;5111143;28;20204;-64
2023/01/04 06:44:35;;;;;;;17.63;11.60;;;2.20;99.90;;;2.14;73.97;101227.69;5113216;28;20261;-66
2023/01/04 06:47:04;;;;;;;19.37;11.37;;;2.20;99.90;;;2.16;73.78;101222.66;5111876;28;20208;-67
2023/01/04 06:49:32;;;;;;;21.73;11.33;;;2.20;99.90;;;2.16;74.41;101227.75;5109294;28;20620;-65
2023/01/04 06:52:00;;;;;;;21.17;11.93;;;2.20;99.90;;;2.17;74.39;101229.47;5110767;28;20280;-64
2023/01/04 06:54:32;;;;;;;20.23;12.23;;;2.20;99.90;;;2.20;73.62;101227.06;5107704;28;20272;-66
2023/01/04 06:57:00;;;;;;;20.97;11.87;;;2.30;99.90;;;2.24;73.67;101228.94;5109587;28;20265;-66
2023/01/04 06:59:29;;;;;;;21.93;11.73;;;2.30;99.90;;;2.26;73.40;101229.00;5107514;28;20239;-66
2023/01/04 07:01:58;;;;;;;21.00;13.20;;;2.30;99.90;;;2.28;73.75;101233.34;5111475;28;20488;-63
2023/01/04 07:04:27;;;;;;;21.37;12.57;;;2.40;99.90;;;2.29;72.96;101232.53;5107078;28;20208;-65
2023/01/04 07:06:56;;;;;;;22.00;13.20;;;2.30;99.90;;;2.30;73.32;101241.91;5111400;28;20245;-67
2023/01/04 07:09:25;;;;;;;20.20;12.93;;;2.30;99.90;;;2.32;73.06;101249.59;5109713;28;20196;-63
2023/01/04 07:11:56;;;;;;;19.43;12.73;;;2.30;99.90;;;2.34;nan;101261.56;5106199;28;20289;-64
2023/01/04 07:14:25;;;;;;;21.80;12.90;;;2.40;99.90;;;2.39;73.16;101254.13;5109253;28;20249;-65
2023/01/04 07:16:53;;;;;;;25.17;13.37;;;2.40;99.90;;;2.40;72.81;101256.75;5098390;28;20261;-64
2023/01/04 07:19:22;;;;;;;22.23;12.83;;;2.40;99.90;;;2.40;73.58;101259.28;5106340;28;20849;-67
2023/01/04 07:21:52;;;;;;;20.47;12.40;;;2.50;99.90;;;2.42;72.71;101260.19;5111568;28;20261;-64
2023/01/04 07:24:21;;;;;;;18.67;12.00;;;2.40;99.90;;;2.45;73.47;101253.50;5107608;28;20559;-64
2023/01/04 07:27:00;;;;;;;22.03;12.77;;;2.40;99.90;;;2.45;73.35;101244.22;5098549;28;20291;-66
2023/01/04 07:29:29;;;;;;;18.63;12.23;;;2.50;99.90;;;2.48;73.53;101243.47;5104233;28;20207;-69
2023/01/04 07:31:58;;;;;;;23.47;12.17;;;2.50;99.90;;;2.51;73.36;101238.50;5106256;28;20265;-67
2023/01/04 07:34:28;;;;;;;24.17;13.07;;;2.50;99.90;;;2.58;72.74;101240.50;5104379;28;20698;-70
2023/01/04 07:36:57;;;;;;;20.23;12.07;;;2.60;99.90;;;2.62;72.89;101248.31;5111128;28;20211;-67
2023/01/04 07:39:25;;;;;;;18.57;11.47;;;2.60;99.90;;;2.61;72.98;101235.50;5103199;28;20664;-69
2023/01/04 07:41:54;;;;;;;17.67;11.23;;;2.70;99.90;;;2.71;72.75;101236.75;5105089;28;20195;-69
2023/01/04 07:44:26;;;;;;;24.90;12.40;;;2.70;99.90;;;2.78;73.15;101233.63;5108869;28;20208;-66
2023/01/04 07:46:54;;;;;;;21.43;11.43;;;2.80;99.90;;;2.87;72.88;101222.16;5107568;28;20211;-67
2023/01/04 07:49:23;;;;;;;26.83;11.93;;;2.90;99.90;;;3.02;72.06;101214.22;5103109;28;20649;-64
2023/01/04 07:51:52;;;;;;;20.03;12.70;;;3.10;99.90;;;3.22;72.41;101224.28;5107173;28;20357;-64
2023/01/04 07:54:22;;;;;;;21.73;11.37;;;3.20;99.90;;;3.31;71.49;101212.72;5102352;28;20250;-68
2023/01/04 07:56:51;;;;;;;15.83;10.90;;;3.40;99.90;;;3.43;71.46;101211.47;5102165;28;20196;-67
2023/01/04 07:59:23;;;;;;;21.83;10.77;;;3.50;99.90;;;3.59;70.90;101201.84;5106963;28;20253;-65
2023/01/04 08:01:52;;;;;;;16.30;11.00;;;3.60;99.90;;;3.75;70.54;101199.84;5107747;28;20652;-70
2023/01/04 08:04:23;;;;;;;19.00;11.83;;;3.80;99.90;;;3.87;69.85;101192.63;5101869;28;20216;-69
2023/01/04 08:07:00;;;;;;;19.70;11.23;;;3.90;99.90;;;3.95;69.77;101185.25;5100591;28;20203;-67
2023/01/04 08:09:28;;;;;;;15.50;11.60;;;4.00;99.90;;;4.02;68.61;101182.09;5103298;28;20204;-69
2023/01/04 08:11:56;;;;;;;20.57;12.27;;;4.10;99.90;;;4.11;69.36;101180.69;5106184;28;21432;-68
2023/01/04 08:14:26;;;;;;;20.65;14.30;;;4.20;99.90;;;4.15;68.95;101171.44;5108520;28;20443;-68
2023/01/04 08:16:55;;;;;;;19.17;13.30;;;4.20;99.90;;;4.22;68.81;101172.53;5106655;28;20563;-67
2023/01/04 08:19:23;;;;;;;19.83;11.90;;;4.30;99.90;;;4.30;67.95;101161.72;5104317;28;20269;-69
2023/01/04 08:21:52;;;;;;;17.40;12.57;;;4.30;99.90;;;4.40;68.29;101167.16;5108262;28;20199;-68
2023/01/04 08:24:21;;;;;;;18.97;12.27;;;4.40;99.90;;;4.53;68.01;101159.06;5107117;28;20261;-68
2023/01/04 08:26:49;;;;;;;22.20;13.10;;;4.50;99.90;;;4.66;67.31;101148.38;5109431;28;20210;-66
2023/01/04 08:29:17;;;;;;;22.10;15.85;;;4.70;99.90;;;4.79;67.62;101158.16;5107197;28;20443;-65
2023/01/04 08:31:47;;;;;;;25.67;14.80;;;4.80;99.90;;;4.91;66.82;101144.88;5111367;28;20251;-69
2023/01/04 08:34:16;;;;;;;21.25;13.93;;;4.90;99.90;;;5.08;65.81;101142.78;5109230;28;20462;-68
2023/01/04 08:36:48;;;;;;;25.83;14.33;;;5.10;99.90;;;5.18;65.19;101137.13;5108919;28;20204;-66
2023/01/04 08:39:16;;;;;;;22.20;12.83;;;5.20;99.90;;;5.25;65.06;101138.16;5109249;28;20215;-67
2023/01/04 08:41:52;;;;;;;22.33;13.40;;;5.30;99.90;;;5.40;64.75;101130.06;5107713;28;20209;-70
2023/01/04 08:44:28;;;;;;;19.77;13.43;;;5.40;99.90;;;5.63;65.49;101121.28;5108541;28;20200;-68
2023/01/04 08:46:58;;;;;;;26.47;14.33;;;5.60;99.90;;;6.05;63.80;101136.03;5109590;28;20257;-67
2023/01/04 08:49:26;;;;;;;20.77;13.77;;;6.00;99.90;;;7.13;65.39;101134.13;5109936;28;20208;-68
2023/01/04 08:51:55;;;;;;;24.73;13.47;;;7.40;99.90;;;8.93;60.32;101129.41;5102825;28;20225;-67
2023/01/04 08:54:23;;;;;;;22.97;13.87;;;9.20;99.90;;;11.05;53.72;101114.00;5104505;28;20247;-66
2023/01/04 08:56:51;;;;;;;27.03;13.07;;;11.20;99.90;;;13.26;47.57;101112.13;5109265;28;20497;-68
2023/01/04 08:59:20;;;;;;;23.53;13.63;;;13.30;99.90;;;15.37;41.21;101091.03;5108487;28;20681;-69
2023/01/04 09:01:48;;;;;;;18.47;12.93;;;15.20;99.90;;;17.10;37.27;101092.31;5113014;28;20698;-68
2023/01/04 09:04:18;;;;;;;18.37;13.50;;;16.90;96.20;;;18.24;33.81;101093.94;5110308;28;20659;-68
2023/01/04 09:06:47;;;;;;;18.23;12.77;;;18.00;87.50;;;18.75;32.94;101080.38;5108760;28;20580;-68
2023/01/04 09:09:16;;;;;;;16.23;13.05;;;18.60;79.00;;;19.30;31.77;101077.88;5113411;28;20239;-69
2023/01/04 09:11:44;;;;;;;17.08;13.65;;;19.10;74.40;;;20.23;30.58;101071.31;5112984;28;20249;-68
2023/01/04 09:14:13;;;;;;;20.45;13.77;;;20.20;72.40;;;20.74;29.16;101060.75;5111885;28;20207;-67
2023/01/04 09:16:41;;;;;;;18.55;12.38;;;20.60;66.00;;;21.13;28.66;101059.28;5110877;28;20714;-67
2023/01/04 09:19:09;;;;;;;15.95;13.45;;;20.90;64.60;;;21.78;27.59;101047.06;5109994;28;20281;-68
2023/01/04 09:21:45;;;;;;;15.70;12.82;;;21.50;61.70;;;22.14;26.95;101042.91;5111880;28;20640;-68
2023/01/04 09:24:13;;;;;;;15.52;12.07;;;21.90;59.60;;;22.79;26.18;101039.97;5113874;28;20595;-72
2023/01/04 09:26:42;;;;;;;14.38;12.45;;;22.70;58.90;;;22.86;24.64;101015.13;5111692;28;20196;-68
2023/01/04 09:29:11;;;;;;;14.45;12.40;;;22.60;55.00;;;22.32;25.11;101012.34;5110236;28;20212;-69
2023/01/04 09:31:39;;;;;;;16.05;11.82;;;22.00;55.00;;;21.52;25.45;101017.53;5112734;28;20231;-67
2023/01/04 09:34:11;;;;;;;17.27;12.95;;;21.20;54.80;;;20.11;26.94;101012.44;5112922;28;20204;-68
2023/01/04 09:36:44;;;;;;;15.23;12.38;;;19.80;55.60;;;18.39;29.23;101019.59;5099868;28;20199;-69
2023/01/04 09:39:13;;;;;;;15.00;12.88;;;18.00;57.50;;;16.96;31.21;101008.44;5109548;28;20249;-68
2023/01/04 09:41:57;;;;;;;17.58;13.25;;;16.70;59.60;;;15.62;33.72;101021.38;5111136;28;20560;-67
2023/01/04 09:44:39;;;;;;;18.03;12.77;;;15.30;62.40;;;14.63;35.51;101015.91;5111036;28;20222;-68
2023/01/04 09:47:39;;;;;;;17.40;13.07;;;14.30;65.50;;;13.98;37.20;101013.16;5108274;28;20199;-69
2023/01/04 09:50:16;;;;;;;19.00;13.97;;;13.60;69.10;;;14.22;38.76;100998.22;5110687;28;20344;-68
2023/01/04 09:52:59;;;;;;;16.23;12.90;;;14.00;73.50;;;15.30;36.83;100985.53;5107525;28;20261;-68
2023/01/04 09:55:34;;;;;;;15.87;11.77;;;14.90;71.70;;;16.96;34.64;100983.25;5110504;28;20590;-67
2023/01/04 09:58:25;;;;;;;15.70;11.60;;;16.60;68.60;;;17.13;32.00;100975.06;5111187;28;20560;-68
2023/01/04 10:01:01;;;;;;;12.23;10.93;;;16.40;64.40;;;16.30;32.94;100966.44;5111015;28;20288;-67
2023/01/04 10:03:34;;;;;;;17.00;12.50;;;15.60;64.60;;;15.38;34.84;100975.88;5105421;28;20256;-68
2023/01/04 10:06:03;;;;;;;15.77;11.83;;;14.90;66.10;;;14.42;36.33;100972.91;5108091;28;20214;-67
2023/01/04 10:08:34;;;;;;;17.47;12.00;;;14.00;67.30;;;13.50;37.49;100973.88;5111587;28;20455;-68
2023/01/04 10:11:23;;;;;;;16.00;11.53;;;13.10;69.50;;;12.74;40.18;100979.56;5110992;28;20208;-65
2023/01/04 10:14:14;;;;;;;17.57;12.03;;;12.40;72.20;;;12.26;41.09;100966.00;5112233;28;20687;-68
2023/01/04 10:16:59;;;;;;;16.73;11.87;;;11.90;75.00;;;12.00;42.48;100961.81;5110767;28;20253;-69
2023/01/04 10:20:00;;;;;;;16.83;11.53;;;11.70;77.50;;;12.48;42.48;100951.25;5110989;28;20235;-69
2023/01/04 10:23:02;;;;;;;17.73;12.13;;;12.20;79.80;;;13.42;41.17;100936.00;5109091;28;20291;-67
2023/01/04 10:25:39;;;;;;;15.47;10.70;;;13.10;77.80;;;13.56;39.61;100930.72;5111876;28;20609;-68
2023/01/04 10:28:26;;;;;;;15.33;10.73;;;13.20;76.40;;;13.34;39.58;100930.03;5099181;28;20207;-68
2023/01/04 10:31:04;;;;;;;16.87;10.70;;;13.00;75.30;;;13.07;40.27;100919.03;5109856;28;20544;-69
2023/01/04 10:34:01;;;;;;;15.37;10.47;;;12.80;75.70;;;12.86;40.91;100901.91;5108794;28;20232;-68
2023/01/04 10:36:31;;;;;;;13.63;10.70;;;12.70;76.90;;;12.68;40.50;100892.56;5111976;28;20196;-68
2023/01/04 10:39:03;;;;;;;16.07;10.80;;;12.50;76.70;;;12.42;41.26;100882.38;5111431;28;20200;-68
2023/01/04 10:41:39;;;;;;;13.17;10.50;;;12.20;76.70;;;12.01;42.17;100862.78;5110593;28;20203;-69
2023/01/04 10:44:16;;;;;;;14.70;10.43;;;11.90;78.20;;;11.73;43.05;100849.06;5111722;28;20230;-67
2023/01/04 10:46:56;;;;;;;17.07;11.47;;;11.60;79.80;;;11.68;43.01;100842.22;5110344;28;20247;-69
2023/01/04 10:49:34;;;;;;;15.97;11.27;;;11.50;80.10;;;11.63;43.68;100831.03;5106107;28;20257;-69
2023/01/04 10:52:09;;;;;;;13.93;9.67;;;11.40;80.50;;;11.59;43.59;100823.28;5110235;28;20648;-69
2023/01/04 10:54:45;;;;;;;15.17;10.47;;;11.30;81.20;;;11.42;43.91;100814.75;5109910;28;20564;-71
2023/01/04 10:57:20;;;;;;;18.93;10.70;;;11.20;82.10;;;11.19;44.19;100821.69;5117219;28;20245;-67
2023/01/04 10:59:57;;;;;;;15.70;11.23;;;10.90;82.80;;;11.11;45.26;100799.34;5111955;28;20280;-67
2023/01/04 11:02:35;;;;;;;15.03;11.00;;;10.90;84.90;;;11.23;45.19;100798.47;5110873;28;20192;-68
2023/01/04 11:05:13;;;;;;;16.43;10.80;;;11.00;84.80;;;11.11;45.13;100785.59;5104898;28;20204;-69
2023/01/04 11:07:48;;;;;;;15.90;10.87;;;10.80;84.90;;;10.84;45.57;100773.59;5109555;28;20211;-69
2023/01/04 11:10:24;;;;;;;17.10;10.60;;;10.60;85.40;;;10.51;46.43;100775.31;5107477;28;20199;-69
2023/01/04 11:12:54;;;;;;;14.23;10.30;;;10.30;86.70;;;10.15;47.44;100776.09;5107927;28;20623;-68
2023/01/04 11:15:23;;;;;;;15.13;10.53;;;10.00;88.00;;;9.78;47.90;100777.72;5107874;28;20199;-68
2023/01/04 11:17:52;;;;;;;15.27;11.00;;;9.70;90.40;;;9.44;49.50;100775.00;5111090;28;20208;-67
2023/01/04 11:20:21;;;;;;;20.80;11.60;;;9.30;91.20;;;9.19;50.62;100780.00;5106952;28;20544;-67
2023/01/04 11:23:01;;;;;;;17.57;12.07;;;9.10;92.30;;;9.18;50.81;100778.31;5107762;28;20192;-68
2023/01/04 11:25:37;;;;;;;17.60;11.00;;;9.10;94.10;;;9.37;51.16;100761.25;5110100;28;20679;-68
2023/01/04 11:28:17;;;;;;;16.23;11.13;;;9.30;94.90;;;9.43;50.83;100750.16;5110089;28;20552;-68